ETD957 HKJK-EHAM
Flight info
| Callsign | ETD957 |
|---|---|
| Flight time | N/A |
| Altitude | 38000 |
| Route | ANTUK2D APKUB UQ293 IMPOG DCT SIPKI/N0478F370 UT325 BUN/N0478F380 UG862 SOKMA/N0476F400 UG862 DIR UB730 BOD UM508 TGU UJ36 BSA/N0477F410 UB726 ZEM/N0472F400 UB16 PECES N853 LUMAS DCT SOFFY DCT MRM DCT MTL DCT ETREK DCT MADOT DCT MOPEM DCT CACHI DCT AVLON DCT OKRIX DCT BRY DCT CLM DCT NURMO DCT SULEX DCT VEKIN DCT ADUTO N873 FERDI/N0384F240 Y18 DENUT |
| Aircraft | B77L/H-SDE1E2E3FGHIJ2J3J4J5M1RWXY/LB1D1 |
Departure
| Time | 2026-05-05 23:28 |
|---|---|
| Airport | Jomo Kenyatta International Airport (HKJK) |
Arrival
| Time | N/A |
|---|---|
| Airport | Amsterdam Airport Schiphol (EHAM) |
| Time | Latitude | Longitude | Altitude | Speed | Heading |
|---|---|---|---|---|---|
| 2026-05-05 23:05 | -1.33344 | 36.91605 | 5333 ft | 0 kts | 143° |
| 2026-05-05 23:21 | -1.33339 | 36.91601 | 5335 ft | 4 kts | 143° |
| 2026-05-05 23:21 | -1.33317 | 36.91584 | 5333 ft | 4 kts | 143° |
| 2026-05-05 23:21 | -1.33296 | 36.91568 | 5335 ft | 4 kts | 140° |
| 2026-05-05 23:21 | -1.33280 | 36.91553 | 5335 ft | 2 kts | 123° |
| 2026-05-05 23:22 | -1.33275 | 36.91543 | 5335 ft | 2 kts | 75° |
| 2026-05-05 23:22 | -1.33279 | 36.91533 | 5335 ft | 2 kts | 55° |
| 2026-05-05 23:22 | -1.33282 | 36.91530 | 5335 ft | 0 kts | 54° |
| 2026-05-05 23:24 | -1.33279 | 36.91533 | 5334 ft | 2 kts | 54° |
| 2026-05-05 23:24 | -1.33255 | 36.91567 | 5332 ft | 10 kts | 54° |
| 2026-05-05 23:24 | -1.33200 | 36.91641 | 5334 ft | 16 kts | 47° |
| 2026-05-05 23:25 | -1.33105 | 36.91731 | 5332 ft | 20 kts | 53° |
| 2026-05-05 23:25 | -1.33027 | 36.91810 | 5340 ft | 7 kts | 18° |
| 2026-05-05 23:25 | -1.32980 | 36.91803 | 5342 ft | 8 kts | 338° |
| 2026-05-05 23:25 | -1.32916 | 36.91762 | 5345 ft | 14 kts | 323° |
| 2026-05-05 23:26 | -1.32865 | 36.91725 | 5344 ft | 11 kts | 323° |
| 2026-05-05 23:26 | -1.32852 | 36.91715 | 5345 ft | 0 kts | 324° |
| 2026-05-05 23:26 | -1.32839 | 36.91706 | 5345 ft | 6 kts | 323° |
| 2026-05-05 23:27 | -1.32778 | 36.91670 | 5345 ft | 13 kts | 343° |
| 2026-05-05 23:27 | -1.32713 | 36.91701 | 5343 ft | 12 kts | 49° |
| 2026-05-05 23:27 | -1.32578 | 36.91880 | 5338 ft | 66 kts | 55° |
| 2026-05-05 23:27 | -1.32172 | 36.92441 | 5321 ft | 131 kts | 53° |
| 2026-05-05 23:28 | -1.31492 | 36.93297 | 5370 ft | 174 kts | 50° |
| 2026-05-05 23:28 | -1.30724 | 36.94295 | 5746 ft | 188 kts | 53° |
| 2026-05-05 23:28 | -1.30119 | 36.95458 | 6366 ft | 191 kts | 75° |
| 2026-05-05 23:28 | -1.30069 | 36.96747 | 6952 ft | 189 kts | 104° |
| 2026-05-05 23:29 | -1.30728 | 36.97877 | 7393 ft | 195 kts | 140° |
| 2026-05-05 23:29 | -1.32009 | 36.98367 | 7729 ft | 206 kts | 181° |
| 2026-05-05 23:29 | -1.33332 | 36.97881 | 8174 ft | 205 kts | 221° |
| 2026-05-05 23:29 | -1.34205 | 36.96765 | 8651 ft | 208 kts | 242° |
| 2026-05-05 23:30 | -1.34799 | 36.95398 | 8909 ft | 224 kts | 254° |
| 2026-05-05 23:30 | -1.35209 | 36.93776 | 9034 ft | 258 kts | 257° |
| 2026-05-05 23:30 | -1.35689 | 36.91904 | 9181 ft | 292 kts | 255° |
| 2026-05-05 23:30 | -1.36275 | 36.89928 | 10005 ft | 300 kts | 253° |
| 2026-05-05 23:31 | -1.36916 | 36.87913 | 10800 ft | 310 kts | 253° |
| 2026-05-05 23:31 | -1.37581 | 36.85801 | 11074 ft | 335 kts | 257° |
| 2026-05-05 23:31 | -1.37669 | 36.83372 | 11257 ft | 361 kts | 282° |
| 2026-05-05 23:31 | -1.36831 | 36.80998 | 11666 ft | 373 kts | 294° |
| 2026-05-05 23:32 | -1.35816 | 36.78580 | 12443 ft | 381 kts | 294° |
| 2026-05-05 23:32 | -1.34783 | 36.76122 | 13403 ft | 384 kts | 294° |
| 2026-05-05 23:32 | -1.33748 | 36.73647 | 14321 ft | 387 kts | 294° |
| 2026-05-05 23:32 | -1.32708 | 36.71140 | 15087 ft | 393 kts | 293° |
| 2026-05-05 23:33 | -1.31660 | 36.68593 | 15810 ft | 399 kts | 293° |
| 2026-05-05 23:33 | -1.30612 | 36.66036 | 16531 ft | 405 kts | 293° |
| 2026-05-05 23:33 | -1.29537 | 36.63408 | 17269 ft | 410 kts | 293° |
| 2026-05-05 23:33 | -1.28452 | 36.60752 | 17998 ft | 415 kts | 293° |
| 2026-05-05 23:34 | -1.27353 | 36.58056 | 18672 ft | 420 kts | 293° |
| 2026-05-05 23:34 | -1.26246 | 36.55336 | 19302 ft | 425 kts | 293° |
| 2026-05-05 23:34 | -1.25128 | 36.52592 | 19932 ft | 429 kts | 293° |
| 2026-05-05 23:34 | -1.23995 | 36.49817 | 20554 ft | 433 kts | 293° |
| 2026-05-05 23:35 | -1.22855 | 36.47018 | 21152 ft | 437 kts | 293° |
| 2026-05-05 23:35 | -1.21702 | 36.44188 | 21739 ft | 442 kts | 293° |
| 2026-05-05 23:35 | -1.20536 | 36.41328 | 22325 ft | 447 kts | 293° |
| 2026-05-05 23:35 | -1.19357 | 36.38438 | 22895 ft | 451 kts | 292° |
| 2026-05-05 23:36 | -1.18167 | 36.35520 | 23463 ft | 456 kts | 292° |
| 2026-05-05 23:36 | -1.16964 | 36.32569 | 23975 ft | 460 kts | 292° |
| 2026-05-05 23:36 | -1.15753 | 36.29598 | 24450 ft | 463 kts | 292° |
| 2026-05-05 23:36 | -1.14549 | 36.26646 | 24959 ft | 466 kts | 292° |
| 2026-05-05 23:37 | -1.13325 | 36.23641 | 25445 ft | 468 kts | 292° |
| 2026-05-05 23:37 | -1.12094 | 36.20621 | 25952 ft | 470 kts | 292° |
| 2026-05-05 23:37 | -1.10858 | 36.17588 | 26427 ft | 473 kts | 292° |
| 2026-05-05 23:37 | -1.09611 | 36.14532 | 26898 ft | 477 kts | 292° |
| 2026-05-05 23:38 | -1.08329 | 36.11452 | 27336 ft | 480 kts | 293° |
| 2026-05-05 23:38 | -1.07013 | 36.08375 | 27798 ft | 483 kts | 294° |
| 2026-05-05 23:38 | -1.05676 | 36.05284 | 28273 ft | 486 kts | 294° |
| 2026-05-05 23:38 | -1.04327 | 36.02172 | 28745 ft | 488 kts | 294° |
| 2026-05-05 23:39 | -1.02977 | 35.99050 | 29214 ft | 491 kts | 294° |
| 2026-05-05 23:39 | -1.01621 | 35.95908 | 29650 ft | 494 kts | 294° |
| 2026-05-05 23:39 | -1.00276 | 35.92780 | 30078 ft | 497 kts | 294° |
| 2026-05-05 23:39 | -0.98906 | 35.89590 | 30466 ft | 499 kts | 294° |
| 2026-05-05 23:40 | -0.97536 | 35.86397 | 30833 ft | 501 kts | 294° |
| 2026-05-05 23:40 | -0.96162 | 35.83194 | 31182 ft | 503 kts | 294° |
| 2026-05-05 23:40 | -0.94779 | 35.79968 | 31554 ft | 504 kts | 294° |
| 2026-05-05 23:40 | -0.93400 | 35.76753 | 32027 ft | 502 kts | 294° |
| 2026-05-05 23:41 | -0.92027 | 35.73553 | 32535 ft | 500 kts | 294° |
| 2026-05-05 23:41 | -0.90660 | 35.70361 | 33054 ft | 498 kts | 294° |
| 2026-05-05 23:41 | -0.89314 | 35.67215 | 33533 ft | 497 kts | 294° |